createdAt,value
2022-12-06T00:01:02.553Z,5.97
2022-12-06T00:06:19.017Z,5.60
2022-12-06T00:11:35.782Z,5.63
2022-12-06T00:16:51.956Z,5.32
2022-12-06T00:22:08.010Z,5.65
2022-12-06T00:27:24.740Z,5.20
2022-12-06T00:32:39.535Z,5.07
2022-12-06T00:37:54.763Z,5.25
2022-12-06T00:43:10.796Z,4.75
2022-12-06T00:48:26.791Z,4.85
2022-12-06T00:53:42.972Z,5.10
2022-12-06T00:58:59.084Z,4.57
2022-12-06T01:04:14.732Z,4.30
2022-12-06T01:09:31.024Z,3.83
2022-12-06T01:14:46.778Z,4.03
2022-12-06T01:20:02.409Z,4.53
2022-12-06T01:25:17.711Z,4.40
2022-12-06T01:30:32.828Z,4.13
2022-12-06T01:35:47.782Z,4.18
2022-12-06T01:41:02.857Z,3.38
2022-12-06T01:46:17.833Z,3.78
2022-12-06T01:51:32.787Z,3.78
2022-12-06T01:56:47.791Z,3.88
2022-12-06T02:02:02.790Z,4.40
2022-12-06T02:07:18.063Z,4.32
2022-12-06T02:12:33.775Z,4.22
2022-12-06T02:17:48.611Z,4.82
2022-12-06T02:23:03.801Z,3.22
2022-12-06T02:28:19.093Z,2.97
2022-12-06T02:33:34.795Z,2.88
2022-12-06T02:38:49.753Z,4.22
2022-12-06T02:44:04.725Z,2.97
2022-12-06T02:49:20.005Z,3.15
2022-12-06T02:54:35.787Z,2.92
2022-12-06T02:59:50.842Z,3.35
2022-12-06T03:05:06.062Z,3.10
2022-12-06T03:10:21.802Z,2.85
2022-12-06T03:15:36.756Z,2.80
2022-12-06T03:20:51.743Z,2.90
2022-12-06T03:26:06.739Z,2.60
2022-12-06T03:31:21.760Z,3.10
2022-12-06T03:36:36.726Z,3.58
2022-12-06T03:41:51.518Z,3.15
2022-12-06T03:47:06.845Z,2.92
2022-12-06T03:52:21.741Z,2.72
2022-12-06T03:57:36.833Z,2.53
2022-12-06T04:02:51.535Z,2.45
2022-12-06T04:08:06.857Z,2.70
2022-12-06T04:13:21.789Z,2.50
2022-12-06T04:18:36.745Z,2.63
2022-12-06T04:23:52.039Z,2.35
2022-12-06T04:29:07.933Z,1.73
2022-12-06T04:34:22.993Z,3.33
2022-12-06T04:39:39.135Z,3.47
2022-12-06T04:44:54.549Z,3.08
2022-12-06T04:50:10.096Z,2.97
2022-12-06T04:55:25.792Z,3.35
2022-12-06T05:00:40.808Z,2.65
2022-12-06T05:05:56.079Z,3.03
2022-12-06T05:11:11.854Z,2.70
2022-12-06T05:16:26.839Z,3.72
2022-12-06T05:21:41.742Z,2.80
2022-12-06T05:26:56.768Z,2.92
2022-12-06T05:32:11.763Z,3.15
2022-12-06T05:37:27.104Z,3.70
2022-12-06T05:42:42.805Z,3.90
2022-12-06T05:47:58.170Z,4.75
2022-12-06T05:53:14.092Z,5.05
2022-12-06T05:58:29.768Z,5.30
2022-12-06T06:03:47.681Z,6.20
2022-12-06T06:09:03.811Z,7.13
2022-12-06T06:14:18.807Z,6.75
2022-12-06T06:19:33.811Z,6.82
2022-12-06T06:24:49.529Z,7.20
2022-12-06T06:30:04.807Z,6.55
2022-12-06T06:35:20.045Z,6.40
2022-12-06T06:40:35.823Z,6.63
2022-12-06T06:45:50.870Z,6.72
2022-12-06T06:51:06.072Z,6.93
2022-12-06T06:56:21.808Z,6.93
2022-12-06T07:01:36.850Z,6.40
2022-12-06T07:06:52.143Z,6.25
2022-12-06T07:12:08.218Z,6.93
2022-12-06T07:17:24.117Z,5.78
2022-12-06T07:22:39.749Z,7.15
2022-12-06T07:27:54.753Z,7.15
2022-12-06T07:33:09.850Z,6.07
2022-12-06T07:38:24.579Z,6.15
2022-12-06T07:43:39.804Z,7.35
2022-12-06T07:48:55.089Z,5.80
2022-12-06T07:54:10.792Z,7.00
2022-12-06T07:59:25.840Z,6.38
2022-12-06T08:04:40.863Z,6.75
2022-12-06T08:09:55.753Z,6.00
2022-12-06T08:15:10.765Z,7.18
2022-12-06T08:26:19.028Z,5.90
2022-12-06T08:31:34.882Z,6.10
2022-12-06T08:36:50.086Z,6.40
2022-12-06T08:42:05.742Z,5.30
2022-12-06T08:47:20.790Z,6.28
2022-12-06T08:52:35.798Z,6.45
2022-12-06T08:57:50.860Z,5.72
2022-12-06T09:03:06.104Z,4.88
2022-12-06T09:08:22.770Z,5.55
2022-12-06T09:13:37.852Z,6.75
2022-12-06T09:18:52.743Z,4.97
2022-12-06T09:24:08.146Z,5.15
2022-12-06T09:29:24.031Z,6.60
2022-12-06T09:34:39.761Z,4.80
2022-12-06T09:39:54.795Z,5.38
2022-12-06T09:45:09.762Z,5.07
2022-12-06T09:50:24.861Z,4.15
2022-12-06T09:55:39.839Z,5.28
2022-12-06T10:00:55.118Z,4.22
2022-12-06T10:06:10.806Z,4.72
2022-12-06T10:11:26.176Z,4.72
2022-12-06T10:16:41.929Z,3.70
2022-12-06T10:21:56.803Z,3.92
2022-12-06T10:27:11.823Z,4.20
2022-12-06T10:32:26.781Z,3.88
2022-12-06T10:37:42.177Z,4.18
2022-12-06T10:42:57.879Z,3.75
2022-12-06T10:48:12.871Z,3.95
2022-12-06T10:53:27.805Z,3.83
2022-12-06T10:58:42.749Z,3.67
2022-12-06T11:03:58.165Z,3.53
2022-12-06T11:09:14.139Z,3.90
2022-12-06T11:14:30.171Z,2.97
2022-12-06T11:19:45.785Z,2.80
2022-12-06T11:25:00.825Z,2.60
2022-12-06T11:30:19.856Z,3.30
2022-12-06T11:35:35.837Z,2.95
2022-12-06T11:40:50.779Z,2.50
2022-12-06T11:46:05.805Z,2.90
2022-12-06T11:51:20.844Z,2.97
2022-12-06T11:56:35.821Z,2.88
2022-12-06T12:01:50.819Z,2.55
2022-12-06T12:07:05.872Z,3.17
2022-12-06T12:12:20.804Z,2.83
2022-12-06T12:17:36.073Z,2.72
2022-12-06T12:22:52.104Z,2.90
2022-12-06T12:28:07.827Z,3.47
2022-12-06T12:33:22.873Z,2.65
2022-12-06T12:38:37.603Z,3.20
2022-12-06T12:44:13.538Z,2.88
2022-12-06T12:49:28.147Z,3.15
2022-12-06T12:54:44.076Z,2.80
2022-12-06T12:59:59.553Z,2.83
2022-12-06T13:10:54.061Z,2.42
2022-12-06T13:16:12.828Z,2.20
2022-12-06T13:21:27.840Z,2.90
2022-12-06T13:26:42.762Z,2.38
2022-12-06T13:31:57.818Z,2.22
2022-12-06T13:37:12.774Z,3.40
2022-12-06T13:42:27.833Z,2.47
2022-12-06T13:47:42.538Z,3.08
2022-12-06T13:52:57.806Z,2.28
2022-12-06T13:58:12.825Z,2.90
2022-12-06T14:03:27.792Z,2.40
2022-12-06T14:08:42.782Z,2.80
2022-12-06T14:13:57.813Z,1.98
2022-12-06T14:19:12.873Z,2.35
2022-12-06T14:24:27.830Z,2.70
2022-12-06T14:29:42.823Z,2.80
2022-12-06T14:34:57.828Z,1.88
2022-12-06T14:40:37.585Z,2.13
2022-12-06T14:45:47.799Z,2.45
2022-12-06T14:51:03.045Z,2.20
2022-12-06T14:56:18.823Z,2.55
2022-12-06T15:01:33.794Z,1.92
2022-12-06T15:06:48.812Z,2.58
2022-12-06T15:12:03.813Z,1.83
2022-12-06T15:17:18.765Z,2.10
2022-12-06T15:22:33.829Z,1.63
2022-12-06T15:27:48.780Z,2.47
2022-12-06T15:33:03.822Z,2.30
2022-12-06T15:38:18.874Z,2.00
2022-12-06T15:43:33.781Z,2.13
2022-12-06T15:48:48.898Z,1.90
2022-12-06T15:54:04.157Z,1.77
2022-12-06T15:59:19.832Z,2.35
2022-12-06T16:04:35.123Z,1.70
2022-12-06T16:09:50.583Z,1.65
2022-12-06T16:15:05.895Z,1.67
2022-12-06T16:20:20.844Z,1.83
2022-12-06T16:25:35.812Z,1.88
2022-12-06T16:30:50.848Z,1.73
2022-12-06T16:36:05.566Z,1.70
2022-12-06T16:41:20.897Z,1.67
2022-12-06T16:46:35.890Z,2.10
2022-12-06T16:51:51.108Z,1.85
2022-12-06T16:57:06.600Z,1.65
2022-12-06T17:02:21.825Z,3.22
2022-12-06T17:07:36.888Z,1.80
2022-12-06T17:12:51.850Z,2.05
2022-12-06T17:18:06.828Z,2.15
2022-12-06T17:23:22.112Z,2.28
2022-12-06T17:28:37.807Z,2.20
2022-12-06T17:33:52.835Z,1.67
2022-12-06T17:39:07.827Z,2.45
2022-12-06T17:44:22.789Z,2.20
2022-12-06T17:49:37.550Z,3.20
2022-12-06T17:54:53.155Z,2.78
2022-12-06T18:00:08.854Z,2.83
2022-12-06T18:05:23.835Z,3.08
2022-12-06T18:10:38.841Z,3.22
2022-12-06T18:15:53.969Z,3.05
2022-12-06T18:21:09.216Z,3.15
2022-12-06T18:26:24.852Z,3.30
2022-12-06T18:31:40.006Z,3.22
2022-12-06T18:36:55.864Z,3.15
2022-12-06T18:42:10.895Z,3.42
2022-12-06T18:47:25.764Z,3.60
2022-12-06T18:52:40.594Z,3.03
2022-12-06T18:57:55.560Z,3.33
2022-12-06T19:03:10.812Z,2.95
2022-12-06T19:08:25.868Z,3.58
2022-12-06T19:13:40.580Z,2.70
2022-12-06T19:18:55.847Z,2.92
2022-12-06T19:24:11.129Z,3.22
2022-12-06T19:29:26.831Z,3.58
2022-12-06T19:34:42.147Z,2.80
2022-12-06T19:39:57.865Z,2.88
2022-12-06T19:45:12.594Z,2.78
2022-12-06T19:50:27.835Z,3.83
2022-12-06T19:55:42.576Z,3.70
2022-12-06T20:00:57.824Z,4.05
2022-12-06T20:06:17.892Z,3.15
2022-12-06T20:11:33.844Z,3.53
2022-12-06T20:16:49.082Z,3.30
2022-12-06T20:22:04.902Z,4.90
2022-12-06T20:27:19.815Z,4.18
2022-12-06T20:32:35.149Z,2.97
2022-12-06T20:37:51.131Z,3.22
2022-12-06T20:43:07.229Z,3.30
2022-12-06T20:48:22.797Z,3.58
2022-12-06T20:53:38.127Z,3.40
2022-12-06T20:58:53.822Z,3.45
2022-12-06T21:04:08.847Z,2.72
2022-12-06T21:09:23.795Z,2.35
2022-12-06T21:14:38.934Z,2.80
2022-12-06T21:19:53.808Z,2.80
2022-12-06T21:25:09.190Z,2.63
2022-12-06T21:30:24.617Z,2.45
2022-12-06T21:35:39.867Z,2.72
2022-12-06T21:41:00.192Z,2.88
2022-12-06T21:46:16.905Z,2.80
2022-12-06T21:51:31.582Z,3.28
2022-12-06T21:56:46.862Z,2.78
2022-12-06T22:02:02.294Z,2.97
2022-12-06T22:07:17.848Z,2.22
2022-12-06T22:12:32.860Z,3.33
2022-12-06T22:17:47.923Z,2.58
2022-12-06T22:23:02.858Z,2.60
2022-12-06T22:28:18.170Z,2.38
2022-12-06T22:33:34.126Z,2.25
2022-12-06T22:38:50.338Z,3.00
2022-12-06T22:44:05.848Z,3.08
2022-12-06T22:49:20.818Z,2.72
2022-12-06T22:54:36.178Z,2.22
2022-12-06T22:59:51.618Z,2.25
2022-12-06T23:05:06.827Z,2.35
2022-12-06T23:10:21.838Z,2.65
2022-12-06T23:15:36.805Z,3.20
2022-12-06T23:20:51.841Z,2.20
2022-12-06T23:26:06.829Z,2.38
2022-12-06T23:31:21.892Z,2.40
2022-12-06T23:36:37.206Z,2.33
2022-12-06T23:41:53.038Z,2.15
2022-12-06T23:47:09.214Z,2.53
2022-12-06T23:52:24.853Z,2.75
2022-12-06T23:57:40.348Z,2.00
